Time;durP1;ratioP1;P1;durP2;ratioP2;P2;SDS_P1;SDS_P2;PMS_P1;PMS_P2;Temp;Humidity;BMP_temperature;BMP_pressure;BME280_temperature;BME280_humidity;BME280_pressure;Samples;Min_cycle;Max_cycle;Signal;HPM_P1;HPM_P2
2023/06/16 00:04:43;;;;;;;5.03;3.85;;;;;;;19.75;44.04;99188.38;7347732;39;20376;31
2023/06/16 00:10:16;;;;;;;6.93;4.05;;;;;;;19.52;44.33;99184.63;7260949;40;20254;31
2023/06/16 00:15:50;;;;;;;5.78;3.90;;;;;;;19.49;43.87;99179.59;7210181;40;20454;31
2023/06/16 00:21:27;;;;;;;6.43;3.93;;;;;;;19.44;44.23;99180.25;7154550;40;20278;31
2023/06/16 00:27:03;;;;;;;5.00;3.80;;;;;;;19.22;45.28;99178.94;7189404;40;20235;31
2023/06/16 00:32:38;;;;;;;4.20;3.80;;;;;;;18.95;46.24;99172.03;7228155;40;20275;31
2023/06/16 00:43:19;;;;;;;4.53;3.80;;;;;;;18.89;46.08;99177.31;7298720;39;20319;31
2023/06/16 00:48:54;;;;;;;8.13;4.50;;;;;;;18.76;46.63;99162.91;7281764;39;20264;31
2023/06/16 00:54:15;;;;;;;6.00;4.30;;;;;;;18.75;46.63;99162.06;7270451;39;20238;31
2023/06/16 00:59:50;;;;;;;9.02;4.03;;;;;;;18.59;47.03;99159.88;7279536;40;20361;31
2023/06/16 01:05:26;;;;;;;4.17;3.77;;;;;;;18.36;48.14;99167.72;7279919;39;20252;31
2023/06/16 01:11:01;;;;;;;6.60;3.90;;;;;;;18.16;48.18;99172.44;7267264;40;20339;31
2023/06/16 01:16:41;;;;;;;5.70;3.60;;;;;;;18.14;47.44;99169.91;7232448;40;20306;31
2023/06/16 01:22:16;;;;;;;6.10;3.90;;;;;;;18.12;47.88;99166.59;7188833;40;20266;31
2023/06/16 01:27:53;;;;;;;5.20;3.90;;;;;;;17.94;48.89;99166.44;7208383;40;20340;31
2023/06/16 01:33:28;;;;;;;5.80;4.10;;;;;;;17.84;49.06;99171.50;7229819;40;20256;31
2023/06/16 01:39:04;;;;;;;8.00;3.70;;;;;;;17.82;48.08;99165.41;7218633;40;20258;31
2023/06/16 01:44:40;;;;;;;5.37;3.90;;;;;;;17.88;47.87;99170.84;7228158;40;20249;31
2023/06/16 01:50:15;;;;;;;5.00;3.63;;;;;;;17.90;47.89;99167.91;7243586;40;20260;31
2023/06/16 01:55:50;;;;;;;5.10;3.80;;;;;;;17.92;47.31;99169.38;7276744;40;20272;31
2023/06/16 02:06:32;;;;;;;6.63;3.90;;;;;;;17.50;49.83;99167.12;7242233;40;20265;31
2023/06/16 02:12:09;;;;;;;5.25;3.75;;;;;;;17.37;50.51;99162.53;7205070;40;20290;31
2023/06/16 02:17:29;;;;;;;5.33;3.67;;;;;;;17.28;49.70;99163.78;7190078;40;20489;31
2023/06/16 02:23:05;;;;;;;4.80;3.80;;;;;;;17.37;48.72;99156.25;7203120;40;20238;31
2023/06/16 02:28:38;;;;;;;4.90;3.90;;;;;;;17.44;49.13;99163.34;7223883;40;20254;31
2023/06/16 02:33:59;;;;;;;4.33;3.60;;;;;;;17.39;49.62;99165.03;7238162;40;20331;31
2023/06/16 02:39:35;;;;;;;4.97;3.60;;;;;;;17.27;50.34;99166.72;7250921;40;20290;31
2023/06/16 02:44:55;;;;;;;4.75;3.80;;;;;;;17.15;49.82;99173.84;7246042;40;20244;31
2023/06/16 02:50:30;;;;;;;7.70;3.90;;;;;;;17.18;49.95;99178.87;7268543;39;20398;31
2023/06/16 02:56:07;;;;;;;5.87;3.73;;;;;;;17.21;50.29;99171.13;7258549;39;20242;31
2023/06/16 03:01:28;;;;;;;4.43;3.67;;;;;;;17.18;50.02;99173.41;7220095;40;20242;31
2023/06/16 03:07:04;;;;;;;6.10;3.70;;;;;;;16.94;49.70;99175.72;7208051;40;20246;31
2023/06/16 03:12:39;;;;;;;6.50;3.55;;;;;;;16.83;50.96;99164.59;7192847;40;20260;31
2023/06/16 03:17:59;;;;;;;4.57;3.60;;;;;;;16.87;51.00;99171.31;7236834;40;20256;31
2023/06/16 03:23:34;;;;;;;8.67;3.97;;;;;;;16.60;52.19;99165.81;7288188;39;20257;31
2023/06/16 03:29:11;;;;;;;8.67;4.00;;;;;;;16.55;51.83;99171.00;7255219;40;20259;31
2023/06/16 03:34:48;;;;;;;5.15;3.80;;;;;;;16.49;52.24;99179.16;7215704;40;20240;31
2023/06/16 03:40:08;;;;;;;4.90;3.80;;;;;;;16.42;51.34;99189.16;7174351;40;20314;31
2023/06/16 03:45:44;;;;;;;5.50;3.63;;;;;;;16.34;52.32;99183.91;7187261;40;20260;31
2023/06/16 03:51:19;;;;;;;6.30;3.70;;;;;;;16.35;51.99;99180.16;7215604;40;20347;31
2023/06/16 03:56:55;;;;;;;7.93;3.90;;;;;;;16.23;52.74;99183.44;7180747;40;20244;31
2023/06/16 04:02:32;;;;;;;5.10;3.70;;;;;;;16.40;51.66;99185.84;7222961;40;20341;31
2023/06/16 04:07:51;;;;;;;6.23;3.67;;;;;;;16.71;50.64;99183.44;7014423;40;21526;31
2023/06/16 04:13:09;;;;;;;6.73;3.87;;;;;;;16.75;51.31;99194.75;7158239;40;20374;31
2023/06/16 04:18:48;;;;;;;10.30;4.10;;;;;;;16.91;51.79;99180.75;7213190;40;20378;31
2023/06/16 04:24:07;;;;;;;9.10;4.20;;;;;;;16.78;52.46;99189.72;7230664;39;20250;31
2023/06/16 04:29:42;;;;;;;10.33;4.80;;;;;;;16.74;51.97;99191.19;7265154;40;20244;31
2023/06/16 04:35:21;;;;;;;12.00;4.97;;;;;;;16.88;51.37;99192.91;7226477;40;20242;31
2023/06/16 04:40:41;;;;;;;5.90;4.40;;;;;;;17.29;50.67;99197.34;7244282;40;20244;31
2023/06/16 04:46:16;;;;;;;7.93;4.30;;;;;;;17.47;49.84;99200.22;7287279;39;20255;31
2023/06/16 04:51:52;;;;;;;7.30;4.10;;;;;;;17.55;50.82;99195.41;7257548;40;20300;31
2023/06/16 04:57:15;;;;;;;7.25;4.37;;;;;;;17.70;50.13;99194.38;7274149;40;20320;31
2023/06/16 05:02:51;;;;;;;7.20;3.70;;;;;;;17.86;50.72;99199.38;7258487;40;20350;31
2023/06/16 05:08:27;;;;;;;6.30;4.00;;;;;;;17.98;51.03;99197.69;7218579;40;20327;31
2023/06/16 05:14:02;;;;;;;9.43;4.00;;;;;;;18.24;51.02;99202.22;7215129;40;20374;31
2023/06/16 05:19:38;;;;;;;4.77;3.33;;;;;;;18.31;51.52;99200.28;7259301;40;20276;31
2023/06/16 05:25:15;;;;;;;8.30;4.00;;;;;;;18.53;51.04;99196.22;7227261;40;20238;31
2023/06/16 05:30:52;;;;;;;7.97;4.20;;;;;;;18.76;50.38;99196.53;7248713;40;20246;31
2023/06/16 05:36:13;;;;;;;5.20;4.10;;;;;;;18.95;50.24;99202.91;7242373;40;20304;31
2023/06/16 05:41:48;;;;;;;5.30;3.90;;;;;;;19.18;49.79;99205.03;7276957;40;20306;31
2023/06/16 05:47:23;;;;;;;6.03;4.30;;;;;;;19.45;48.62;99205.72;7289632;40;21081;31
2023/06/16 05:52:59;;;;;;;7.70;3.93;;;;;;;19.66;48.80;99208.87;7283743;40;20259;31
2023/06/16 05:58:36;;;;;;;5.00;3.80;;;;;;;19.85;47.48;99214.38;7208659;40;20242;31
2023/06/16 06:03:57;;;;;;;8.68;3.92;;;;;;;20.09;47.93;99218.97;7200577;40;20247;31
2023/06/16 06:09:31;;;;;;;6.50;4.20;;;;;;;20.27;47.20;99227.19;7206174;40;20253;31
2023/06/16 06:15:06;;;;;;;6.27;4.10;;;;;;;20.49;48.63;99233.06;7190674;40;20231;31
2023/06/16 06:20:27;;;;;;;6.00;4.55;;;;;;;20.66;48.36;99242.34;7198308;40;20313;31
2023/06/16 06:26:01;;;;;;;6.03;3.60;;;;;;;20.82;47.56;99240.84;7220360;40;20351;31
2023/06/16 06:31:38;;;;;;;8.03;4.00;;;;;;;21.00;47.25;99238.91;7262260;40;20342;31
2023/06/16 06:37:00;;;;;;;7.70;3.77;;;;;;;21.27;46.54;99247.63;7190022;40;20329;31
2023/06/16 06:42:34;;;;;;;6.10;4.20;;;;;;;21.52;46.77;99251.00;7218109;40;20273;31
2023/06/16 06:48:10;;;;;;;7.03;4.13;;;;;;;21.74;45.45;99258.66;7296903;39;20270;31
2023/06/16 06:53:32;;;;;;;4.80;3.65;;;;;;;21.97;44.20;99261.47;7245445;40;20346;31
2023/06/16 06:59:07;;;;;;;6.00;4.10;;;;;;;22.07;44.88;99267.19;7232708;40;21052;31
2023/06/16 07:04:44;;;;;;;7.15;3.58;;;;;;;22.28;44.07;99271.22;7233154;40;20594;31
2023/06/16 07:10:06;;;;;;;5.60;3.60;;;;;;;22.50;43.18;99274.19;7216096;40;20262;31
2023/06/16 07:15:40;;;;;;;6.57;3.87;;;;;;;22.65;42.83;99280.81;7239091;40;20323;31
2023/06/16 07:21:16;;;;;;;8.25;4.12;;;;;;;22.85;42.57;99280.47;7239283;40;20369;31
2023/06/16 07:26:51;;;;;;;5.38;3.80;;;;;;;23.11;42.45;99282.63;7182634;40;20325;31
2023/06/16 07:32:11;;;;;;;6.65;4.12;;;;;;;23.30;42.11;99280.53;7199134;40;20245;31
2023/06/16 07:37:47;;;;;;;6.03;3.90;;;;;;;23.52;41.64;99269.66;7207511;40;20257;31
2023/06/16 07:43:07;;;;;;;8.57;4.22;;;;;;;23.80;40.35;99280.59;7214595;40;20245;31
2023/06/16 07:48:27;;;;;;;10.18;4.37;;;;;;;23.99;40.29;99271.00;7229181;40;20269;31
2023/06/16 07:54:04;;;;;;;5.75;3.90;;;;;;;24.17;40.48;99276.28;7249419;40;20242;31
2023/06/16 07:59:24;;;;;;;9.70;4.22;;;;;;;24.39;39.39;99275.47;7284373;39;20272;31
2023/06/16 08:04:45;;;;;;;8.10;3.47;;;;;;;24.53;39.35;99277.59;7260839;40;20276;31
2023/06/16 08:10:21;;;;;;;10.55;4.00;;;;;;;24.54;39.74;99267.41;7281618;39;20244;31
2023/06/16 08:15:57;;;;;;;7.47;4.07;;;;;;;24.70;39.12;99272.03;7245153;40;20391;31
2023/06/16 08:21:32;;;;;;;14.53;4.37;;;;;;;24.99;37.80;99272.69;7274536;39;20330;31
2023/06/16 08:27:09;;;;;;;9.32;4.03;;;;;;;25.26;37.47;99278.22;7241807;40;20280;31
2023/06/16 08:32:30;;;;;;;5.65;3.75;;;;;;;25.36;37.04;99270.88;7220132;40;20273;31
2023/06/16 08:37:50;;;;;;;6.85;3.55;;;;;;;25.36;35.84;99272.81;7239666;40;20360;31
2023/06/16 08:43:26;;;;;;;5.35;3.80;;;;;;;25.55;35.70;99258.41;7260415;39;20435;31
2023/06/16 08:49:01;;;;;;;4.65;3.70;;;;;;;25.70;34.84;99260.47;7252795;40;20438;31
2023/06/16 08:54:36;;;;;;;5.60;3.60;;;;;;;25.79;34.66;99258.06;7252758;40;20265;31
2023/06/16 09:00:12;;;;;;;6.60;3.97;;;;;;;25.88;35.19;99265.59;7259866;40;20448;31
2023/06/16 09:05:47;;;;;;;6.30;3.75;;;;;;;26.12;34.14;99259.66;7242251;40;20329;31
2023/06/16 09:11:23;;;;;;;5.87;3.90;;;;;;;26.36;34.26;99247.97;7271445;40;20260;31
2023/06/16 09:17:01;;;;;;;4.90;3.60;;;;;;;26.60;32.57;99248.38;7297267;40;20256;31
2023/06/16 09:22:36;;;;;;;6.68;4.00;;;;;;;26.70;32.35;99237.34;7270139;40;20241;31
2023/06/16 09:28:10;;;;;;;4.28;3.85;;;;;;;26.84;31.93;99244.06;7237478;40;20266;31
2023/06/16 09:33:46;;;;;;;11.22;3.68;;;;;;;27.05;31.02;99241.38;7197117;40;20273;31
2023/06/16 09:39:21;;;;;;;6.80;3.80;;;;;;;27.27;31.02;99237.28;7210396;40;20241;31
2023/06/16 09:44:57;;;;;;;4.80;3.37;;;;;;;27.48;31.33;99240.94;7212045;40;20261;31
2023/06/16 09:50:33;;;;;;;6.20;3.60;;;;;;;27.56;31.47;99232.06;7191583;40;20269;31
2023/06/16 09:56:08;;;;;;;5.00;3.70;;;;;;;27.78;30.15;99226.25;7170786;40;20316;31
2023/06/16 10:01:43;;;;;;;7.15;3.83;;;;;;;27.16;30.40;99234.78;7241998;40;20260;31
2023/06/16 10:07:20;;;;;;;4.20;3.40;;;;;;;27.47;30.42;99232.88;7188657;40;20250;31
2023/06/16 10:12:55;;;;;;;7.60;3.28;;;;;;;27.90;29.70;99234.28;7213162;40;20457;31
2023/06/16 10:18:30;;;;;;;6.72;3.60;;;;;;;27.81;30.06;99238.72;7252278;40;20335;31
2023/06/16 10:24:06;;;;;;;5.22;3.55;;;;;;;27.53;31.04;99226.25;7216864;40;20261;31
2023/06/16 10:29:41;;;;;;;6.35;3.95;;;;;;;27.65;29.98;99227.62;7014002;40;20238;31
2023/06/16 10:35:01;;;;;;;6.75;4.00;;;;;;;27.09;30.95;99228.66;7236723;40;20258;31
2023/06/16 10:40:39;;;;;;;4.95;4.00;;;;;;;27.25;31.00;99230.38;7197339;40;20589;31
2023/06/16 10:46:29;;;;;;;7.53;3.90;;;;;;;27.89;29.15;99235.38;7211094;40;20344;31
2023/06/16 10:52:04;;;;;;;4.97;3.80;;;;;;;27.96;30.00;99219.28;7179813;40;20258;31
2023/06/16 10:57:40;;;;;;;5.85;3.78;;;;;;;27.60;30.04;99224.84;7238101;40;20352;31
2023/06/16 11:03:15;;;;;;;4.52;3.98;;;;;;;27.26;29.11;99230.06;7189204;40;20286;31
2023/06/16 11:09:08;;;;;;;5.70;3.53;;;;;;;27.00;31.07;99222.81;7229103;40;20331;31
2023/06/16 11:14:40;;;;;;;5.65;3.92;;;;;;;27.73;29.79;99220.72;7237318;40;21070;31
2023/06/16 11:20:15;;;;;;;5.60;3.70;;;;;;;28.06;28.89;99210.97;7257297;40;20231;31
2023/06/16 11:25:50;;;;;;;7.13;3.80;;;;;;;27.84;28.64;99208.50;7259237;40;20496;31
2023/06/16 11:31:25;;;;;;;5.80;3.45;;;;;;;27.83;29.38;99206.84;7259426;40;20257;31
2023/06/16 11:36:58;;;;;;;5.40;3.95;;;;;;;27.25;28.95;99197.94;7218716;40;20445;31
2023/06/16 11:42:33;;;;;;;5.00;3.57;;;;;;;27.41;30.38;99209.03;7189235;40;20430;31
2023/06/16 11:48:10;;;;;;;4.65;3.70;;;;;;;27.41;29.77;99204.34;7247437;40;20408;31
2023/06/16 11:53:43;;;;;;;5.30;3.83;;;;;;;27.91;29.97;99213.78;7289316;39;20434;31
2023/06/16 11:59:04;;;;;;;4.62;3.67;;;;;;;28.43;28.22;99210.63;7243360;40;20257;31
2023/06/16 12:04:37;;;;;;;6.20;3.90;;;;;;;28.54;28.16;99202.00;7249470;40;20249;31
2023/06/16 12:09:58;;;;;;;4.65;4.00;;;;;;;28.18;28.89;99197.66;7226898;40;20262;31
2023/06/16 12:15:32;;;;;;;6.50;3.83;;;;;;;27.73;28.80;99190.25;7267558;40;20411;31
2023/06/16 12:21:08;;;;;;;6.05;3.80;;;;;;;27.58;29.05;99182.78;7240598;40;20233;31
2023/06/16 12:26:47;;;;;;;8.15;3.75;;;;;;;28.03;29.35;99183.81;7238193;40;20262;31
2023/06/16 12:32:22;;;;;;;7.28;4.00;;;;;;;28.23;28.46;99190.16;7227139;40;20599;31
2023/06/16 12:37:59;;;;;;;4.97;4.35;;;;;;;28.57;28.23;99175.59;7260027;39;20265;31
2023/06/16 12:43:36;;;;;;;12.10;4.45;;;;;;;28.81;26.58;99168.31;7206287;40;20428;31
2023/06/16 12:49:11;;;;;;;6.53;3.78;;;;;;;28.79;28.07;99164.16;7179502;40;20255;31
2023/06/16 12:54:47;;;;;;;6.10;3.70;;;;;;;28.91;28.12;99164.66;7183957;40;20258;31
2023/06/16 13:00:21;;;;;;;4.10;3.40;;;;;;;28.60;28.46;99167.56;7146110;40;20439;31
2023/06/16 13:11:00;;;;;;;5.37;4.03;;;;;;;29.20;27.59;99153.63;7255285;40;21295;31
2023/06/16 13:21:40;;;;;;;5.55;3.70;;;;;;;29.46;27.42;99144.81;7297318;39;20285;31
2023/06/16 13:32:21;;;;;;;4.55;4.15;;;;;;;29.33;26.41;99136.31;7286303;39;20450;31
2023/06/16 13:42:47;;;;;;;6.75;3.55;;;;;;;28.98;25.65;99152.09;7255805;40;21291;31
2023/06/16 13:48:19;;;;;;;8.10;4.43;;;;;;;28.73;26.87;99141.19;7280202;40;20257;31
2023/06/16 13:53:53;;;;;;;7.30;3.90;;;;;;;28.91;28.63;99134.13;7281307;39;20350;31
2023/06/16 13:59:13;;;;;;;5.30;3.90;;;;;;;29.16;26.70;99135.88;7257955;40;20462;31
2023/06/16 14:04:45;;;;;;;8.45;4.45;;;;;;;29.27;26.35;99118.84;7241844;40;20272;31
2023/06/16 14:10:18;;;;;;;3.90;3.50;;;;;;;29.19;26.43;99113.91;7207560;40;20531;31
2023/06/16 14:15:38;;;;;;;4.37;3.97;;;;;;;28.96;27.74;99109.13;7216924;40;20352;31
2023/06/16 14:21:14;;;;;;;7.75;3.87;;;;;;;28.81;27.72;99107.25;7228463;40;20276;31
2023/06/16 14:26:49;;;;;;;5.57;3.80;;;;;;;29.00;27.29;99094.37;7210872;40;20246;31
2023/06/16 14:32:09;;;;;;;6.50;3.80;;;;;;;29.03;27.57;99084.63;7188832;40;20346;31
2023/06/16 14:37:41;;;;;;;6.65;3.60;;;;;;;29.15;27.28;99079.50;7237561;40;20261;31
2023/06/16 14:43:16;;;;;;;6.35;3.75;;;;;;;29.50;26.94;99083.94;7245469;39;20256;31
2023/06/16 14:48:36;;;;;;;8.95;4.20;;;;;;;29.67;25.51;99080.72;7228408;40;20437;31
2023/06/16 14:54:12;;;;;;;5.97;3.60;;;;;;;29.41;26.75;99075.41;7254348;40;20273;31
2023/06/16 15:04:36;;;;;;;4.93;3.67;;;;;;;29.32;25.29;99071.63;7281864;39;21202;31
2023/06/16 15:15:16;;;;;;;5.00;3.70;;;;;;;29.19;26.55;99074.22;7310866;39;21053;31
2023/06/16 15:26:08;;;;;;;4.70;3.65;;;;;;;28.81;25.83;99067.59;7336140;39;20456;31
2023/06/16 15:36:48;;;;;;;5.32;3.75;;;;;;;28.94;25.62;99067.75;7309736;39;21093;31
2023/06/16 15:42:08;;;;;;;7.20;4.10;;;;;;;28.91;24.64;99061.97;7258392;40;20261;31
2023/06/16 15:47:41;;;;;;;5.00;3.65;;;;;;;28.91;25.83;99061.97;7252050;40;20493;31
2023/06/16 15:53:17;;;;;;;6.80;3.50;;;;;;;29.13;25.44;99051.22;7250986;39;20594;31
2023/06/16 15:58:37;;;;;;;5.55;3.50;;;;;;;29.23;25.91;99048.34;7264395;40;20257;31
2023/06/16 16:04:13;;;;;;;6.65;4.35;;;;;;;29.28;25.80;99041.91;7257535;40;20314;31
2023/06/16 16:09:49;;;;;;;3.80;3.35;;;;;;;29.48;25.30;99044.53;7258136;40;20276;31
2023/06/16 16:15:22;;;;;;;4.37;3.62;;;;;;;29.38;24.02;99037.12;7228033;40;20250;31
2023/06/16 16:20:42;;;;;;;6.70;3.55;;;;;;;29.41;24.56;99041.25;7216606;40;20253;31
2023/06/16 16:26:18;;;;;;;5.70;3.50;;;;;;;29.33;24.64;99031.63;7280313;40;20524;31
2023/06/16 16:31:53;;;;;;;5.20;3.44;;;;;;;29.32;25.81;99035.50;7209092;40;20277;31
2023/06/16 16:42:29;;;;;;;6.20;3.60;;;;;;;29.24;25.21;99032.50;7232193;40;21221;31
2023/06/16 16:47:49;;;;;;;5.10;3.40;;;;;;;29.23;25.60;99034.44;7224489;40;20263;31
2023/06/16 16:53:11;;;;;;;4.25;3.80;;;;;;;29.11;25.26;99036.78;7308502;39;20441;31
2023/06/16 16:58:46;;;;;;;5.78;3.72;;;;;;;28.73;25.65;99034.91;7301012;39;20458;31
2023/06/16 17:04:06;;;;;;;4.93;3.78;;;;;;;28.72;25.46;99038.78;7268997;40;20391;31
2023/06/16 17:09:27;;;;;;;3.75;3.25;;;;;;;28.70;26.80;99032.69;7249499;40;20245;31
2023/06/16 17:15:01;;;;;;;5.53;3.80;;;;;;;28.67;25.93;99028.53;7226384;40;20276;31
2023/06/16 17:20:21;;;;;;;7.35;3.55;;;;;;;28.64;27.03;99048.53;7204561;40;20273;31
2023/06/16 17:25:38;;;;;;;5.25;3.60;;;;;;;28.48;26.34;99039.47;7072923;39;20276;31
2023/06/16 17:31:15;;;;;;;6.05;3.90;;;;;;;28.17;26.89;99049.09;7275982;39;20255;31
2023/06/16 17:36:50;;;;;;;5.00;3.50;;;;;;;28.16;27.59;99039.94;7241388;40;20312;31
2023/06/16 17:42:25;;;;;;;3.87;3.42;;;;;;;28.03;26.84;99040.53;7298237;39;20272;31
2023/06/16 17:48:01;;;;;;;6.43;3.77;;;;;;;27.87;28.21;99040.84;7237441;40;20307;31
2023/06/16 17:58:25;;;;;;;5.60;3.60;;;;;;;27.81;28.37;99051.16;7253392;40;20470;31
2023/06/16 18:03:59;;;;;;;4.25;3.60;;;;;;;27.69;28.76;99051.44;7217363;40;20498;31
2023/06/16 18:09:34;;;;;;;6.35;3.70;;;;;;;27.58;29.29;99047.06;7186440;40;20360;31
2023/06/16 18:14:55;;;;;;;3.78;3.35;;;;;;;27.63;29.57;99041.50;7239629;40;20257;31
2023/06/16 18:20:29;;;;;;;7.15;3.70;;;;;;;27.48;31.37;99044.31;7263595;40;20259;31
2023/06/16 18:25:52;;;;;;;6.80;3.27;;;;;;;27.29;32.52;99041.25;7278378;40;20252;31
2023/06/16 18:31:25;;;;;;;6.90;3.92;;;;;;;27.01;33.34;99044.62;7262456;40;20315;31
2023/06/16 18:37:01;;;;;;;9.90;3.70;;;;;;;26.76;33.22;99048.19;7188141;40;20242;31
2023/06/16 18:42:36;;;;;;;5.62;4.50;;;;;;;26.61;33.73;99045.41;7157634;40;20434;31
2023/06/16 18:48:11;;;;;;;7.70;4.20;;;;;;;26.48;34.50;99043.16;7188692;40;20258;31
2023/06/16 18:53:47;;;;;;;12.15;4.40;;;;;;;26.27;34.55;99039.53;7177347;40;20465;31
2023/06/16 18:59:22;;;;;;;6.83;4.43;;;;;;;26.14;34.97;99045.53;7176296;40;20238;31
2023/06/16 19:04:58;;;;;;;8.57;4.20;;;;;;;25.92;36.03;99050.44;7207912;40;20373;31
2023/06/16 19:10:33;;;;;;;6.80;3.85;;;;;;;25.67;36.64;99042.03;7205763;40;20242;31
2023/06/16 19:15:54;;;;;;;6.45;4.00;;;;;;;25.61;36.20;99043.94;7234260;40;20273;31
2023/06/16 19:21:29;;;;;;;5.25;4.10;;;;;;;25.42;37.02;99046.25;7258602;40;20256;31
2023/06/16 19:27:05;;;;;;;5.60;4.22;;;;;;;25.29;36.78;99045.91;7257349;40;20249;31
2023/06/16 19:32:40;;;;;;;6.07;3.97;;;;;;;25.26;37.53;99049.19;7263404;40;20257;31
2023/06/16 19:38:01;;;;;;;5.96;4.00;;;;;;;25.27;36.41;99056.37;7231954;40;20415;31
2023/06/16 19:43:32;;;;;;;7.65;4.00;;;;;;;25.20;36.91;99059.34;7194694;40;20395;31
2023/06/16 19:48:53;;;;;;;11.65;4.60;;;;;;;25.14;36.65;99075.03;7195038;40;20276;31
2023/06/16 19:54:14;;;;;;;6.73;3.80;;;;;;;25.04;35.64;99091.53;7254407;39;20256;31
2023/06/16 19:59:47;;;;;;;8.90;3.83;;;;;;;24.99;35.67;99101.66;7230971;40;20335;31
2023/06/16 20:05:09;;;;;;;9.57;3.75;;;;;;;24.95;35.62;99103.28;7261214;40;20355;31
2023/06/16 20:10:32;;;;;;;4.93;3.70;;;;;;;24.94;36.56;99107.97;7267000;40;20234;31
2023/06/16 20:16:07;;;;;;;5.28;4.03;;;;;;;24.86;36.28;99111.22;7281679;40;20338;31
2023/06/16 20:21:28;;;;;;;7.00;3.90;;;;;;;24.79;36.57;99118.00;7252037;40;20261;31
2023/06/16 20:26:48;;;;;;;5.40;4.40;;;;;;;24.63;36.76;99117.00;7273434;39;20307;31
2023/06/16 20:32:24;;;;;;;7.00;3.57;;;;;;;24.41;37.61;99125.31;7309403;39;20463;31
2023/06/16 20:38:00;;;;;;;5.60;4.10;;;;;;;24.19;37.35;99117.06;7301625;39;20351;31
2023/06/16 20:43:21;;;;;;;5.37;4.07;;;;;;;24.08;38.18;99123.50;7327553;39;20226;31
2023/06/16 20:48:56;;;;;;;4.68;3.33;;;;;;;23.89;38.45;99124.91;7297476;39;20410;31
2023/06/16 20:54:16;;;;;;;5.67;3.67;;;;;;;23.81;37.84;99128.09;7278180;40;20246;31
2023/06/16 20:59:51;;;;;;;4.40;4.00;;;;;;;23.67;39.23;99129.53;7269216;39;20276;31
2023/06/16 21:05:30;;;;;;;4.30;3.90;;;;;;;23.60;38.65;99123.38;7225935;40;20499;31
2023/06/16 21:10:48;;;;;;;4.43;3.97;;;;;;;23.47;39.48;99126.50;7228429;40;20277;31
2023/06/16 21:21:29;;;;;;;4.40;4.00;;;;;;;23.16;41.07;99123.22;7255530;39;20264;31
2023/06/16 21:26:51;;;;;;;5.85;4.07;;;;;;;23.16;41.13;99125.13;7293983;39;20251;31
2023/06/16 21:32:10;;;;;;;4.35;3.67;;;;;;;22.91;40.95;99126.34;7330352;39;20258;31
2023/06/16 21:37:46;;;;;;;5.10;3.95;;;;;;;22.61;41.75;99133.16;7297757;39;20387;31
2023/06/16 21:43:07;;;;;;;5.75;4.00;;;;;;;22.65;41.71;99131.59;7229799;40;20421;31
2023/06/16 21:48:27;;;;;;;5.43;3.97;;;;;;;22.60;41.70;99124.09;7246881;40;20249;31
2023/06/16 21:54:04;;;;;;;4.20;3.80;;;;;;;22.36;42.55;99133.53;7282402;40;20300;31
2023/06/16 21:59:40;;;;;;;5.15;4.12;;;;;;;22.34;42.36;99130.16;7283537;39;20429;31
2023/06/16 22:05:06;;;;;;;7.22;3.90;;;;;;;22.23;42.54;99129.16;7296820;39;20248;31
2023/06/16 22:10:39;;;;;;;7.83;4.23;;;;;;;22.10;42.72;99123.94;7267769;40;20267;31
2023/06/16 22:15:58;;;;;;;4.87;3.60;;;;;;;22.00;43.51;99120.97;7196008;40;20262;31
2023/06/16 22:21:34;;;;;;;8.93;4.55;;;;;;;21.83;43.88;99125.50;7229552;40;21188;31
2023/06/16 22:32:14;;;;;;;6.10;4.30;;;;;;;21.77;43.84;99116.31;7280851;39;20295;31
2023/06/16 22:42:36;;;;;;;6.60;4.22;;;;;;;21.68;43.92;99114.19;7285080;39;20283;31
2023/06/16 22:53:17;;;;;;;5.40;4.04;;;;;;;21.38;44.67;99114.31;7323802;39;21117;31
2023/06/16 22:58:53;;;;;;;8.13;3.93;;;;;;;21.29;44.92;99122.06;7298029;40;20259;31
2023/06/16 23:04:13;;;;;;;5.10;4.10;;;;;;;21.22;44.13;99118.63;7292143;40;20354;31
2023/06/16 23:09:49;;;;;;;7.18;4.43;;;;;;;21.04;45.24;99124.16;7276542;40;20305;31
2023/06/16 23:15:25;;;;;;;7.57;4.05;;;;;;;20.69;45.40;99122.19;7278133;40;20245;31
2023/06/16 23:21:01;;;;;;;6.95;4.25;;;;;;;20.58;45.83;99117.47;7336454;39;20234;31
2023/06/16 23:26:37;;;;;;;5.43;4.40;;;;;;;20.60;46.57;99107.13;7280007;40;20237;31
2023/06/16 23:31:56;;;;;;;7.50;4.20;;;;;;;20.60;45.57;99104.41;7257899;40;20246;31
2023/06/16 23:37:16;;;;;;;4.47;3.80;;;;;;;20.20;46.56;99115.03;7262708;39;20280;31
2023/06/16 23:42:52;;;;;;;5.35;4.05;;;;;;;20.02;47.17;99108.75;7222492;40;20250;31
2023/06/16 23:48:27;;;;;;;4.50;4.10;;;;;;;19.89;47.88;99106.16;7251169;40;20245;31
2023/06/16 23:53:47;;;;;;;5.20;4.60;;;;;;;20.05;46.69;99111.03;7275740;39;20275;31
2023/06/16 23:59:23;;;;;;;4.30;3.90;;;;;;;20.13;46.95;99091.56;7289261;39;20245;31
